createdAt,value
2018-11-07T00:00:50.219Z,18.74
2018-11-07T00:01:50.172Z,18.73
2018-11-07T00:02:50.157Z,18.70
2018-11-07T00:03:50.079Z,18.74
2018-11-07T00:04:50.026Z,18.77
2018-11-07T00:05:50.078Z,18.73
2018-11-07T00:06:49.935Z,18.77
2018-11-07T00:07:49.980Z,18.65
2018-11-07T00:08:49.837Z,18.84
2018-11-07T00:09:49.792Z,18.86
2018-11-07T00:10:49.742Z,18.83
2018-11-07T00:11:49.797Z,18.71
2018-11-07T00:12:49.647Z,18.80
2018-11-07T00:13:49.600Z,18.84
2018-11-07T00:14:49.552Z,18.75
2018-11-07T00:15:49.503Z,18.78
2018-11-07T00:16:49.455Z,18.80
2018-11-07T00:17:49.509Z,18.70
2018-11-07T00:18:49.360Z,18.75
2018-11-07T00:19:49.321Z,18.73
2018-11-07T00:20:49.267Z,18.77
2018-11-07T00:21:49.217Z,18.71
2018-11-07T00:22:49.181Z,18.71
2018-11-07T00:23:49.224Z,18.74
2018-11-07T00:24:49.077Z,18.73
2018-11-07T00:25:49.027Z,18.81
2018-11-07T00:26:48.980Z,18.83
2018-11-07T00:27:48.932Z,18.77
2018-11-07T00:28:48.885Z,18.89
2018-11-07T00:29:48.942Z,18.90
2018-11-07T00:30:48.790Z,18.81
2018-11-07T00:31:48.744Z,18.93
2018-11-07T00:32:48.700Z,18.84
2018-11-07T00:33:48.650Z,18.89
2018-11-07T00:34:48.600Z,18.84
2018-11-07T00:35:48.655Z,18.88
2018-11-07T00:36:48.508Z,18.74
2018-11-07T00:37:48.462Z,18.80
2018-11-07T00:38:48.412Z,18.88
2018-11-07T00:39:48.362Z,18.77
2018-11-07T00:40:48.319Z,18.86
2018-11-07T00:41:48.369Z,18.83
2018-11-07T00:42:48.226Z,18.86
2018-11-07T00:43:48.178Z,18.81
2018-11-07T00:44:48.127Z,18.92
2018-11-07T00:45:48.078Z,18.83
2018-11-07T00:46:48.030Z,18.81
2018-11-07T00:47:48.088Z,18.81
2018-11-07T00:48:47.935Z,18.88
2018-11-07T00:49:47.888Z,18.88
2018-11-07T00:50:47.858Z,18.88
2018-11-07T00:51:47.793Z,18.92
2018-11-07T00:52:47.749Z,18.93
2018-11-07T00:53:47.805Z,18.93
2018-11-07T00:54:47.653Z,18.83
2018-11-07T00:55:47.604Z,18.88
2018-11-07T00:56:47.561Z,18.80
2018-11-07T00:57:47.571Z,18.84
2018-11-07T00:58:47.464Z,18.88
2018-11-07T00:59:47.513Z,19.00
2018-11-07T01:00:47.371Z,18.83
2018-11-07T01:01:47.324Z,18.81
2018-11-07T01:02:47.275Z,18.86
2018-11-07T01:03:47.222Z,18.88
2018-11-07T01:04:47.176Z,18.90
2018-11-07T01:05:47.230Z,18.90
2018-11-07T01:06:47.080Z,18.89
2018-11-07T01:07:47.039Z,18.84
2018-11-07T01:08:46.990Z,18.89
2018-11-07T01:09:46.943Z,18.74
2018-11-07T01:10:46.892Z,18.78
2018-11-07T01:11:46.943Z,18.80
2018-11-07T01:12:46.798Z,18.80
2018-11-07T01:13:46.753Z,18.74
2018-11-07T01:14:46.704Z,18.81
2018-11-07T01:15:46.655Z,18.86
2018-11-07T01:16:46.652Z,18.84
2018-11-07T01:17:46.660Z,18.93
2018-11-07T01:18:46.516Z,18.78
2018-11-07T01:19:46.470Z,18.83
2018-11-07T01:20:46.418Z,18.89
2018-11-07T01:21:46.371Z,18.81
2018-11-07T01:22:46.324Z,18.80
2018-11-07T01:23:46.379Z,18.90
2018-11-07T01:24:46.226Z,18.80
2018-11-07T01:25:46.178Z,18.93
2018-11-07T01:26:46.131Z,19.00
2018-11-07T01:27:46.088Z,18.95
2018-11-07T01:28:46.041Z,18.99
2018-11-07T01:29:46.091Z,18.93
2018-11-07T01:30:45.946Z,19.00
2018-11-07T01:31:45.899Z,18.96
2018-11-07T01:32:45.848Z,18.96
2018-11-07T01:33:45.799Z,18.98
2018-11-07T01:34:45.752Z,18.92
2018-11-07T01:35:45.806Z,18.92
2018-11-07T01:36:45.657Z,18.83
2018-11-07T01:37:45.611Z,18.95
2018-11-07T01:38:45.566Z,18.86
2018-11-07T01:39:45.515Z,18.89
2018-11-07T01:40:45.472Z,18.88
2018-11-07T01:41:45.561Z,18.92
2018-11-07T01:42:45.373Z,18.92
2018-11-07T01:43:45.330Z,18.86
2018-11-07T01:44:45.280Z,18.88
2018-11-07T01:45:45.235Z,18.95
2018-11-07T01:46:45.183Z,18.93
2018-11-07T01:47:45.242Z,18.95
2018-11-07T01:48:45.094Z,18.96
2018-11-07T01:49:45.045Z,18.96
2018-11-07T01:50:44.996Z,18.93
2018-11-07T01:51:44.946Z,18.96
2018-11-07T01:52:44.902Z,18.95
2018-11-07T01:53:44.953Z,18.90
2018-11-07T01:54:44.806Z,18.84
2018-11-07T01:55:44.758Z,18.83
2018-11-07T01:56:44.712Z,18.80
2018-11-07T01:57:44.666Z,18.88
2018-11-07T01:58:44.614Z,18.83
2018-11-07T01:59:44.669Z,18.83
2018-11-07T02:00:44.525Z,18.90
2018-11-07T02:01:44.475Z,18.84
2018-11-07T02:02:44.426Z,18.93
2018-11-07T02:03:44.377Z,18.86
2018-11-07T02:04:44.330Z,18.84
2018-11-07T02:05:44.388Z,18.90
2018-11-07T02:06:44.234Z,19.00
2018-11-07T02:07:44.186Z,18.90
2018-11-07T02:08:44.141Z,18.92
2018-11-07T02:09:44.093Z,18.96
2018-11-07T02:10:44.048Z,18.89
2018-11-07T02:11:44.099Z,18.86
2018-11-07T02:12:43.951Z,18.92
2018-11-07T02:13:43.904Z,18.84
2018-11-07T02:14:43.859Z,18.86
2018-11-07T02:15:43.809Z,18.89
2018-11-07T02:16:43.760Z,18.99
2018-11-07T02:17:43.817Z,18.95
2018-11-07T02:18:43.670Z,18.89
2018-11-07T02:19:43.619Z,18.92
2018-11-07T02:20:43.572Z,18.95
2018-11-07T02:21:43.524Z,18.92
2018-11-07T02:22:43.477Z,18.99
2018-11-07T02:23:43.528Z,18.98
2018-11-07T02:24:43.380Z,18.92
2018-11-07T02:25:43.337Z,19.02
2018-11-07T02:26:43.290Z,18.99
2018-11-07T02:27:43.242Z,18.92
2018-11-07T02:28:43.196Z,18.99
2018-11-07T02:29:43.243Z,18.96
2018-11-07T02:30:43.100Z,18.93
2018-11-07T02:31:43.051Z,18.98
2018-11-07T02:32:43.010Z,18.96
2018-11-07T02:33:42.955Z,18.90
2018-11-07T02:34:42.908Z,18.95
2018-11-07T02:35:42.959Z,18.99
2018-11-07T02:36:42.832Z,18.99
2018-11-07T02:37:42.769Z,18.92
2018-11-07T02:38:42.717Z,18.96
2018-11-07T02:39:42.671Z,19.04
2018-11-07T02:40:42.622Z,19.00
2018-11-07T02:41:42.713Z,19.12
2018-11-07T02:42:42.535Z,19.14
2018-11-07T02:43:42.479Z,19.09
2018-11-07T02:44:42.439Z,19.14
2018-11-07T02:45:42.385Z,19.12
2018-11-07T02:46:42.342Z,19.08
2018-11-07T02:47:42.392Z,19.12
2018-11-07T02:48:42.249Z,19.12
2018-11-07T02:49:42.200Z,19.12
2018-11-07T02:50:42.151Z,19.07
2018-11-07T02:51:42.106Z,19.08
2018-11-07T02:52:42.059Z,18.96
2018-11-07T02:53:42.117Z,19.08
2018-11-07T02:54:41.965Z,19.08
2018-11-07T02:55:41.912Z,19.11
2018-11-07T02:56:41.866Z,19.12
2018-11-07T02:57:41.821Z,19.08
2018-11-07T02:58:41.793Z,19.09
2018-11-07T02:59:41.825Z,19.12
2018-11-07T03:00:41.678Z,19.09
2018-11-07T03:01:41.631Z,19.09
2018-11-07T03:02:41.595Z,19.11
2018-11-07T03:03:41.539Z,19.15
2018-11-07T03:04:41.487Z,19.18
2018-11-07T03:05:41.545Z,19.21
2018-11-07T03:06:41.394Z,19.19
2018-11-07T03:07:41.349Z,19.21
2018-11-07T03:08:41.299Z,19.19
2018-11-07T03:09:41.256Z,19.04
2018-11-07T03:10:41.261Z,19.14
2018-11-07T03:11:41.267Z,19.07
2018-11-07T03:12:41.108Z,19.11
2018-11-07T03:13:41.061Z,19.07
2018-11-07T03:14:41.019Z,19.07
2018-11-07T03:15:40.966Z,19.09
2018-11-07T03:16:40.922Z,18.93
2018-11-07T03:17:40.979Z,19.07
2018-11-07T03:18:40.829Z,19.07
2018-11-07T03:19:40.780Z,19.12
2018-11-07T03:20:40.732Z,19.08
2018-11-07T03:21:40.688Z,19.16
2018-11-07T03:22:40.643Z,19.18
2018-11-07T03:23:40.691Z,19.18
2018-11-07T03:24:40.543Z,19.19
2018-11-07T03:25:40.498Z,19.18
2018-11-07T03:26:40.446Z,19.16
2018-11-07T03:27:40.402Z,19.04
2018-11-07T03:28:40.365Z,19.12
2018-11-07T03:29:40.410Z,19.07
2018-11-07T03:30:40.264Z,19.04
2018-11-07T03:31:40.216Z,19.08
2018-11-07T03:32:40.201Z,19.19
2018-11-07T03:33:40.121Z,19.14
2018-11-07T03:34:40.069Z,19.12
2018-11-07T03:35:40.123Z,19.09
2018-11-07T03:36:39.974Z,19.09
2018-11-07T03:37:39.929Z,19.11
2018-11-07T03:38:39.887Z,19.09
2018-11-07T03:39:39.874Z,19.08
2018-11-07T03:40:39.790Z,19.12
2018-11-07T03:41:39.842Z,19.12
2018-11-07T03:42:39.691Z,19.15
2018-11-07T03:43:39.645Z,19.21
2018-11-07T03:44:39.600Z,19.18
2018-11-07T03:45:39.551Z,19.26
2018-11-07T03:46:39.506Z,19.24
2018-11-07T03:47:39.554Z,19.24
2018-11-07T03:48:39.408Z,19.27
2018-11-07T03:49:39.360Z,19.27
2018-11-07T03:50:39.312Z,19.22
2018-11-07T03:51:39.267Z,19.24
2018-11-07T03:52:39.225Z,19.29
2018-11-07T03:53:39.278Z,19.16
2018-11-07T03:54:39.129Z,19.16
2018-11-07T03:55:39.078Z,19.21
2018-11-07T03:56:39.035Z,19.19
2018-11-07T03:57:38.981Z,19.24
2018-11-07T03:58:38.948Z,19.27
2018-11-07T03:59:38.992Z,19.26
2018-11-07T04:00:38.844Z,19.29
2018-11-07T04:01:38.793Z,19.29
2018-11-07T04:02:39.252Z,19.37
2018-11-07T04:03:38.700Z,19.30
2018-11-07T04:04:38.651Z,19.33
2018-11-07T04:05:38.710Z,19.29
2018-11-07T04:06:38.559Z,19.36
2018-11-07T04:07:38.515Z,19.39
2018-11-07T04:08:38.462Z,19.39
2018-11-07T04:09:38.417Z,19.44
2018-11-07T04:10:38.369Z,19.45
2018-11-07T04:11:38.421Z,19.41
2018-11-07T04:12:38.277Z,19.49
2018-11-07T04:13:38.232Z,19.48
2018-11-07T04:14:38.182Z,19.44
2018-11-07T04:15:38.136Z,19.45
2018-11-07T04:16:38.087Z,19.51
2018-11-07T04:17:38.143Z,19.45
2018-11-07T04:18:37.995Z,19.49
2018-11-07T04:19:37.951Z,19.44
2018-11-07T04:20:39.099Z,19.45
2018-11-07T04:21:37.851Z,19.39
2018-11-07T04:22:37.802Z,19.45
2018-11-07T04:23:37.865Z,19.34
2018-11-07T04:24:38.203Z,19.36
2018-11-07T04:25:37.669Z,19.44
2018-11-07T04:26:37.615Z,19.40
2018-11-07T04:27:37.567Z,19.44
2018-11-07T04:28:37.520Z,19.39
2018-11-07T04:29:37.573Z,19.49
2018-11-07T04:30:37.426Z,19.40
2018-11-07T04:31:37.382Z,19.45
2018-11-07T04:32:37.332Z,19.44
2018-11-07T04:33:37.291Z,19.31
2018-11-07T04:34:37.240Z,19.44
2018-11-07T04:35:37.293Z,19.41
2018-11-07T04:36:37.147Z,19.40
2018-11-07T04:37:37.098Z,19.39
2018-11-07T04:38:37.053Z,19.45
2018-11-07T04:39:37.004Z,19.41
2018-11-07T04:40:36.958Z,19.36
2018-11-07T04:41:37.014Z,19.37
2018-11-07T04:42:36.867Z,19.45
2018-11-07T04:43:36.818Z,19.39
2018-11-07T04:44:36.768Z,19.48
2018-11-07T04:45:36.722Z,19.33
2018-11-07T04:46:36.676Z,19.48
2018-11-07T04:47:36.730Z,19.37
2018-11-07T04:48:36.580Z,19.39
2018-11-07T04:49:36.534Z,19.51
2018-11-07T04:50:36.487Z,19.45
2018-11-07T04:51:36.453Z,19.40
2018-11-07T04:52:36.445Z,19.44
2018-11-07T04:53:36.951Z,19.45
2018-11-07T04:54:36.298Z,19.52
2018-11-07T04:55:37.154Z,19.49
2018-11-07T04:56:36.206Z,19.55
2018-11-07T04:57:36.653Z,19.41
2018-11-07T04:58:36.110Z,19.44
2018-11-07T04:59:36.168Z,19.37
2018-11-07T05:00:36.521Z,19.41
2018-11-07T05:01:35.973Z,19.45
2018-11-07T05:02:36.328Z,19.51
2018-11-07T05:03:35.875Z,19.41
2018-11-07T05:04:36.331Z,19.40
2018-11-07T05:05:35.886Z,19.45
2018-11-07T05:06:36.231Z,19.44
2018-11-07T05:07:35.687Z,19.48
2018-11-07T05:09:35.593Z,19.48
2018-11-07T05:10:35.650Z,19.48
2018-11-07T05:11:36.002Z,19.49
2018-11-07T05:12:35.951Z,19.55
2018-11-07T05:13:35.406Z,19.55
2018-11-07T05:14:35.360Z,19.48
2018-11-07T05:15:35.818Z,19.40
2018-11-07T05:16:35.366Z,19.45
2018-11-07T05:17:35.222Z,19.41
2018-11-07T05:18:35.184Z,19.48
2018-11-07T05:19:35.127Z,19.44
2018-11-07T05:20:35.080Z,19.55
2018-11-07T05:21:35.033Z,19.47
2018-11-07T05:22:35.581Z,19.59
2018-11-07T05:23:34.937Z,19.44
2018-11-07T05:24:34.888Z,19.45
2018-11-07T05:25:35.337Z,19.51
2018-11-07T05:26:34.794Z,19.56
2018-11-07T05:27:35.245Z,19.54
2018-11-07T05:28:35.301Z,19.45
2018-11-07T05:29:35.156Z,19.47
2018-11-07T05:30:34.611Z,19.51
2018-11-07T05:31:34.563Z,19.40
2018-11-07T05:32:34.513Z,19.51
2018-11-07T05:33:34.968Z,19.44
2018-11-07T05:34:35.015Z,19.45
2018-11-07T05:35:34.372Z,19.49
2018-11-07T05:36:34.324Z,19.48
2018-11-07T05:37:34.278Z,19.51
2018-11-07T05:38:34.735Z,19.55
2018-11-07T05:39:34.188Z,19.54
2018-11-07T05:40:34.933Z,19.58
2018-11-07T05:41:34.090Z,19.52
2018-11-07T05:42:34.043Z,19.47
2018-11-07T05:43:33.996Z,19.52
2018-11-07T05:44:33.947Z,19.45
2018-11-07T05:45:34.405Z,19.54
2018-11-07T05:46:34.457Z,19.37
2018-11-07T05:47:33.808Z,19.44
2018-11-07T05:48:33.786Z,19.41
2018-11-07T05:49:33.713Z,19.47
2018-11-07T05:50:33.664Z,19.44
2018-11-07T05:51:33.620Z,19.40
2018-11-07T05:52:34.176Z,19.49
2018-11-07T05:53:33.527Z,19.41
2018-11-07T05:54:33.477Z,19.41
2018-11-07T05:55:33.433Z,19.36
2018-11-07T05:56:33.395Z,19.44
2018-11-07T05:57:33.340Z,19.39
2018-11-07T05:58:33.890Z,19.31
2018-11-07T05:59:33.243Z,19.36
2018-11-07T06:00:33.201Z,19.37
2018-11-07T06:01:33.150Z,19.26
2018-11-07T06:02:33.103Z,19.34
2018-11-07T06:03:33.056Z,19.31
2018-11-07T06:04:33.109Z,19.33
2018-11-07T06:05:32.960Z,19.24
2018-11-07T06:06:32.916Z,19.24
2018-11-07T06:07:32.868Z,19.21
2018-11-07T06:08:32.821Z,19.11
2018-11-07T06:09:32.771Z,19.11
2018-11-07T06:10:32.823Z,19.09
2018-11-07T06:11:32.683Z,19.11
2018-11-07T06:12:32.630Z,19.12
2018-11-07T06:13:32.583Z,19.11
2018-11-07T06:14:32.539Z,19.09
2018-11-07T06:15:32.490Z,19.09
2018-11-07T06:16:32.542Z,19.12
2018-11-07T06:17:32.394Z,19.09
2018-11-07T06:18:32.347Z,19.08
2018-11-07T06:19:32.301Z,19.07
2018-11-07T06:20:32.253Z,19.07
2018-11-07T06:21:32.204Z,19.07
2018-11-07T06:22:32.260Z,19.08
2018-11-07T06:23:32.111Z,19.16
2018-11-07T06:24:32.137Z,19.21
2018-11-07T06:25:32.019Z,19.18
2018-11-07T06:26:31.967Z,19.30
2018-11-07T06:27:31.920Z,19.24
2018-11-07T06:28:31.975Z,19.19
2018-11-07T06:29:31.832Z,19.16
2018-11-07T06:30:31.780Z,19.30
2018-11-07T06:31:31.735Z,19.22
2018-11-07T06:32:31.684Z,19.24
2018-11-07T06:33:31.639Z,19.22
2018-11-07T06:34:31.692Z,19.19
2018-11-07T06:35:31.545Z,19.24
2018-11-07T06:36:31.497Z,19.11
2018-11-07T06:37:31.455Z,19.19
2018-11-07T06:38:31.405Z,19.12
2018-11-07T06:39:31.354Z,19.14
2018-11-07T06:40:31.411Z,19.09
2018-11-07T06:41:31.261Z,19.07
2018-11-07T06:42:31.212Z,19.04
2018-11-07T06:43:31.170Z,19.07
2018-11-07T06:44:31.181Z,19.11
2018-11-07T06:45:31.072Z,19.09
2018-11-07T06:46:31.128Z,19.12
2018-11-07T06:47:30.981Z,19.09
2018-11-07T06:48:30.934Z,19.11
2018-11-07T06:49:30.884Z,19.07
2018-11-07T06:50:30.835Z,19.12
2018-11-07T06:51:30.792Z,19.11
2018-11-07T06:52:30.840Z,19.04
2018-11-07T06:53:30.697Z,19.08
2018-11-07T06:54:30.652Z,19.09
2018-11-07T06:55:30.669Z,19.15
2018-11-07T06:56:30.551Z,19.18
2018-11-07T06:57:30.506Z,19.12
2018-11-07T06:58:30.561Z,19.14
2018-11-07T06:59:30.412Z,19.07
2018-11-07T07:00:30.364Z,19.14
2018-11-07T07:01:30.361Z,19.14
2018-11-07T07:02:30.270Z,19.12
2018-11-07T07:03:30.220Z,19.18
2018-11-07T07:04:30.273Z,19.08
2018-11-07T07:05:30.126Z,19.21
2018-11-07T07:06:30.078Z,19.09
2018-11-07T07:07:30.033Z,19.12
2018-11-07T07:08:29.984Z,19.18
2018-11-07T07:09:29.938Z,19.04
2018-11-07T07:10:29.994Z,19.12
2018-11-07T07:11:29.843Z,19.07
2018-11-07T07:12:29.800Z,19.02
2018-11-07T07:13:29.799Z,18.90
2018-11-07T07:14:29.703Z,18.99
2018-11-07T07:15:29.653Z,18.98
2018-11-07T07:16:29.709Z,18.92
2018-11-07T07:17:29.615Z,18.95
2018-11-07T07:18:29.511Z,19.00
2018-11-07T07:19:29.468Z,19.02
2018-11-07T07:20:29.419Z,19.07
2018-11-07T07:21:29.369Z,19.07
2018-11-07T07:22:29.423Z,19.12
2018-11-07T07:23:29.276Z,18.96
2018-11-07T07:24:29.228Z,19.02
2018-11-07T07:25:29.207Z,19.09
2018-11-07T07:26:29.133Z,19.09
2018-11-07T07:27:29.088Z,19.07
2018-11-07T07:28:33.357Z,19.07
2018-11-07T07:29:28.991Z,19.02
2018-11-07T07:30:29.080Z,19.04
2018-11-07T07:31:28.904Z,18.90
2018-11-07T07:32:28.849Z,18.93
2018-11-07T07:33:29.069Z,19.00
2018-11-07T07:34:28.756Z,19.07
2018-11-07T07:35:28.709Z,19.00
2018-11-07T07:36:28.662Z,19.08
2018-11-07T07:37:28.612Z,19.09
2018-11-07T07:38:28.565Z,19.07
2018-11-07T07:39:28.773Z,19.12
2018-11-07T07:40:28.476Z,19.14
2018-11-07T07:41:28.425Z,19.16
2018-11-07T07:42:28.376Z,19.12
2018-11-07T07:43:28.329Z,19.12
2018-11-07T07:44:28.281Z,19.11
2018-11-07T07:45:28.498Z,19.15
2018-11-07T07:46:28.188Z,19.16
2018-11-07T07:47:28.144Z,19.19
2018-11-07T07:48:28.099Z,19.09
2018-11-07T07:49:28.139Z,19.19
2018-11-07T07:50:28.000Z,19.24
2018-11-07T07:51:28.201Z,19.19
2018-11-07T07:52:27.923Z,19.33
2018-11-07T07:53:27.860Z,19.24
2018-11-07T07:54:27.813Z,19.26
2018-11-07T07:55:27.762Z,19.21
2018-11-07T07:56:27.720Z,19.18
2018-11-07T07:57:27.767Z,19.16
2018-11-07T07:58:27.624Z,19.18
2018-11-07T07:59:27.577Z,19.16
2018-11-07T08:00:27.527Z,19.19
2018-11-07T08:01:27.482Z,19.19
2018-11-07T08:02:27.432Z,19.14
2018-11-07T08:03:27.684Z,19.19
2018-11-07T08:04:27.342Z,19.19
2018-11-07T08:05:27.291Z,19.21
2018-11-07T08:06:27.242Z,19.24
2018-11-07T08:07:27.200Z,19.22
2018-11-07T08:08:27.149Z,19.22
2018-11-07T08:09:27.401Z,19.19
2018-11-07T08:10:27.053Z,19.14
2018-11-07T08:11:27.008Z,19.24
2018-11-07T08:12:26.958Z,19.29
2018-11-07T08:13:26.971Z,19.27
2018-11-07T08:14:26.866Z,19.24
2018-11-07T08:15:27.118Z,19.24
2018-11-07T08:16:26.771Z,19.26
2018-11-07T08:17:26.722Z,19.30
2018-11-07T08:18:26.681Z,19.22
2018-11-07T08:19:26.633Z,19.30
2018-11-07T08:20:26.583Z,19.30
2018-11-07T08:21:26.871Z,19.22
2018-11-07T08:22:26.488Z,19.19
2018-11-07T08:23:26.443Z,19.22
2018-11-07T08:24:26.399Z,19.19
2018-11-07T08:25:26.347Z,19.21
2018-11-07T08:26:26.299Z,19.22
2018-11-07T08:27:26.501Z,19.22
2018-11-07T08:28:26.203Z,19.24
2018-11-07T08:29:26.161Z,19.30
2018-11-07T08:30:26.110Z,19.21
2018-11-07T08:31:26.061Z,19.36
2018-11-07T08:32:26.268Z,19.27
2018-11-07T08:33:25.972Z,19.31
2018-11-07T08:34:25.920Z,19.33
2018-11-07T08:35:25.877Z,19.27
2018-11-07T08:36:25.832Z,19.31
2018-11-07T08:37:25.778Z,19.31
2018-11-07T08:38:25.981Z,19.31
2018-11-07T08:39:25.686Z,19.27
2018-11-07T08:40:25.641Z,19.45
2018-11-07T08:41:25.591Z,19.37
2018-11-07T08:42:25.598Z,19.44
2018-11-07T08:43:25.495Z,19.44
2018-11-07T08:44:25.754Z,19.44
2018-11-07T08:45:25.405Z,19.34
2018-11-07T08:46:25.355Z,19.44
2018-11-07T08:47:25.310Z,19.41
2018-11-07T08:48:25.273Z,19.44
2018-11-07T08:49:25.215Z,19.54
2018-11-07T08:50:25.468Z,19.44
2018-11-07T08:51:25.123Z,19.41
2018-11-07T08:52:25.072Z,19.47
2018-11-07T08:53:25.028Z,19.47
2018-11-07T08:54:24.982Z,19.44
2018-11-07T08:55:24.946Z,19.47
2018-11-07T08:56:25.135Z,19.48
2018-11-07T08:57:24.840Z,19.41
2018-11-07T08:58:24.790Z,19.51
2018-11-07T08:59:24.748Z,19.49
2018-11-07T09:00:24.699Z,19.45
2018-11-07T09:01:24.760Z,19.39
2018-11-07T09:02:24.852Z,19.40
2018-11-07T09:03:24.558Z,19.44
2018-11-07T09:04:24.506Z,19.52
2018-11-07T09:05:24.461Z,19.44
2018-11-07T09:06:24.420Z,19.54
2018-11-07T09:07:24.370Z,19.52
2018-11-07T09:08:24.620Z,19.55
2018-11-07T09:09:24.280Z,19.49
2018-11-07T09:10:24.226Z,19.58
2018-11-07T09:11:24.178Z,19.63
2018-11-07T09:12:24.130Z,19.63
2018-11-07T09:13:24.083Z,19.64
2018-11-07T09:14:24.286Z,19.48
2018-11-07T09:15:23.998Z,19.54
2018-11-07T09:16:23.894Z,19.56
2018-11-07T09:17:23.895Z,19.63
2018-11-07T09:18:23.849Z,19.55
2018-11-07T09:19:23.800Z,19.56
2018-11-07T09:20:24.006Z,19.55
2018-11-07T09:21:23.710Z,19.63
2018-11-07T09:22:23.662Z,19.63
2018-11-07T09:23:23.612Z,19.64
2018-11-07T09:24:23.589Z,19.69
2018-11-07T09:25:23.522Z,19.64
2018-11-07T09:26:23.784Z,19.73
2018-11-07T09:27:23.428Z,19.64
2018-11-07T09:28:23.379Z,19.79
2018-11-07T09:29:23.429Z,19.81
2018-11-07T09:30:23.284Z,19.94
2018-11-07T09:31:23.235Z,19.81
2018-11-07T09:32:23.506Z,19.94
2018-11-07T09:33:23.150Z,19.92
2018-11-07T09:34:23.094Z,19.85
2018-11-07T09:35:23.150Z,19.84
2018-11-07T09:36:23.007Z,19.86
2018-11-07T09:37:22.953Z,19.84
2018-11-07T09:38:23.210Z,19.88
2018-11-07T09:39:22.862Z,19.89
2018-11-07T09:40:22.813Z,19.86
2018-11-07T09:41:22.771Z,20.00
2018-11-07T09:42:22.730Z,19.94
2018-11-07T09:43:22.672Z,19.95
2018-11-07T09:44:22.928Z,19.99
2018-11-07T09:45:22.581Z,19.94
2018-11-07T09:46:22.533Z,19.91
2018-11-07T09:47:22.522Z,20.02
2018-11-07T09:48:22.523Z,19.99
2018-11-07T09:49:22.396Z,20.03
2018-11-07T09:50:22.594Z,19.91
2018-11-07T09:51:22.297Z,20.14
2018-11-07T09:52:22.251Z,20.00
2018-11-07T09:53:22.205Z,20.11
2018-11-07T09:54:22.204Z,20.10
2018-11-07T09:55:22.608Z,20.04
2018-11-07T09:56:22.363Z,20.09
2018-11-07T09:57:22.027Z,20.04
2018-11-07T09:58:21.969Z,20.11
2018-11-07T09:59:21.945Z,20.14
2018-11-07T10:00:21.878Z,20.18
2018-11-07T10:01:21.834Z,20.10
2018-11-07T10:02:22.041Z,20.19
2018-11-07T10:03:21.738Z,20.14
2018-11-07T10:04:21.693Z,20.16
2018-11-07T10:05:21.692Z,20.13
2018-11-07T10:06:21.619Z,20.22
2018-11-07T10:07:21.559Z,20.18
2018-11-07T10:08:21.754Z,20.19
2018-11-07T10:09:21.466Z,20.31
2018-11-07T10:10:21.409Z,20.26
2018-11-07T10:11:21.365Z,20.26
2018-11-07T10:12:21.352Z,20.24
2018-11-07T10:13:21.269Z,20.29
2018-11-07T10:14:21.476Z,20.36
2018-11-07T10:15:21.186Z,20.34
2018-11-07T10:16:21.129Z,20.32
2018-11-07T10:17:21.084Z,20.31
2018-11-07T10:18:21.037Z,20.36
2018-11-07T10:19:20.994Z,20.39
2018-11-07T10:20:21.245Z,20.31
2018-11-07T10:21:20.896Z,20.32
2018-11-07T10:22:20.852Z,20.31
2018-11-07T10:23:20.805Z,20.32
2018-11-07T10:24:20.754Z,20.36
2018-11-07T10:25:20.709Z,20.29
2018-11-07T10:26:20.914Z,20.32
2018-11-07T10:27:21.304Z,20.34
2018-11-07T10:28:20.758Z,20.26
2018-11-07T10:29:20.859Z,20.25
2018-11-07T10:30:20.706Z,20.29
2018-11-07T10:31:20.432Z,20.34
2018-11-07T10:32:20.634Z,20.24
2018-11-07T10:33:20.341Z,20.22
2018-11-07T10:34:20.293Z,20.26
2018-11-07T10:35:20.247Z,20.36
2018-11-07T10:36:20.204Z,20.39
2018-11-07T10:37:32.140Z,20.39
2018-11-07T10:38:20.431Z,20.37
2018-11-07T10:39:20.054Z,20.34
2018-11-07T10:40:20.011Z,20.29
2018-11-07T10:41:19.961Z,20.34
2018-11-07T10:42:19.919Z,20.34
2018-11-07T10:43:19.870Z,20.44
2018-11-07T10:44:20.257Z,20.37
2018-11-07T10:45:19.779Z,20.43
2018-11-07T10:46:19.727Z,20.31
2018-11-07T10:47:19.686Z,20.41
2018-11-07T10:48:19.634Z,20.43
2018-11-07T10:49:19.594Z,20.37
2018-11-07T10:50:19.795Z,20.43
2018-11-07T10:51:19.519Z,20.44
2018-11-07T10:52:19.453Z,20.40
2018-11-07T10:53:19.413Z,20.48
2018-11-07T10:54:19.356Z,20.40
2018-11-07T10:55:19.316Z,20.48
2018-11-07T10:56:19.568Z,20.47
2018-11-07T10:57:19.226Z,20.52
2018-11-07T10:58:19.167Z,20.55
2018-11-07T10:59:19.120Z,20.62
2018-11-07T11:00:19.074Z,20.58
2018-11-07T11:01:19.063Z,20.63
2018-11-07T11:02:19.231Z,20.69
2018-11-07T11:03:18.934Z,20.66
2018-11-07T11:04:18.909Z,20.65
2018-11-07T11:05:19.392Z,20.65
2018-11-07T11:06:18.797Z,20.69
2018-11-07T11:07:18.749Z,20.66
2018-11-07T11:08:18.965Z,20.69
2018-11-07T11:09:18.663Z,20.63
2018-11-07T11:10:18.610Z,20.66
2018-11-07T11:11:18.581Z,20.78
2018-11-07T11:12:18.517Z,20.81
2018-11-07T11:13:18.475Z,20.88
2018-11-07T11:14:18.676Z,20.88
2018-11-07T11:15:18.376Z,20.85
2018-11-07T11:16:18.334Z,20.95
2018-11-07T11:17:18.432Z,20.90
2018-11-07T11:18:18.241Z,20.93
2018-11-07T11:19:18.190Z,20.99
2018-11-07T11:20:18.396Z,20.87
2018-11-07T11:21:18.103Z,20.92
2018-11-07T11:22:18.051Z,20.93
2018-11-07T11:23:18.009Z,20.90
2018-11-07T11:24:17.962Z,20.92
2018-11-07T11:25:17.912Z,21.02
2018-11-07T11:26:18.171Z,20.97
2018-11-07T11:27:17.897Z,20.93
2018-11-07T11:28:17.778Z,20.92
2018-11-07T11:29:17.731Z,20.93
2018-11-07T11:30:17.681Z,20.88
2018-11-07T11:31:17.639Z,20.88
2018-11-07T11:32:17.845Z,20.92
2018-11-07T11:33:17.547Z,20.97
2018-11-07T11:34:17.636Z,20.90
2018-11-07T11:35:17.653Z,20.93
2018-11-07T11:36:17.409Z,20.97
2018-11-07T11:37:17.863Z,20.99
2018-11-07T11:38:17.610Z,21.00
2018-11-07T11:39:17.267Z,20.96
2018-11-07T11:40:17.218Z,20.96
2018-11-07T11:41:17.233Z,20.96
2018-11-07T11:42:17.139Z,20.96
2018-11-07T11:43:17.077Z,21.05
2018-11-07T11:44:17.337Z,21.05
2018-11-07T11:45:16.986Z,21.14
2018-11-07T11:46:16.945Z,21.03
2018-11-07T11:47:16.900Z,21.11
2018-11-07T11:48:16.848Z,21.15
2018-11-07T11:49:16.890Z,21.07
2018-11-07T11:50:17.075Z,21.05
2018-11-07T11:51:16.746Z,21.11
2018-11-07T11:52:16.667Z,21.14
2018-11-07T11:53:16.617Z,21.22
2018-11-07T12:01:11.511Z,21.18
2018-11-07T12:02:11.312Z,21.25
2018-11-07T12:03:11.256Z,21.29
2018-11-07T12:04:11.207Z,21.32
2018-11-07T12:05:11.162Z,21.32
2018-11-07T12:06:11.116Z,21.32
2018-11-07T12:07:11.346Z,21.24
2018-11-07T12:08:11.053Z,21.21
2018-11-07T12:09:10.992Z,21.20
2018-11-07T12:10:10.959Z,21.21
2018-11-07T12:11:10.903Z,21.25
2018-11-07T12:12:10.873Z,21.20
2018-11-07T12:13:11.108Z,21.14
2018-11-07T12:14:10.767Z,21.20
2018-11-07T12:15:10.784Z,21.12
2018-11-07T12:16:10.675Z,21.20
2018-11-07T12:17:10.623Z,21.17
2018-11-07T12:18:10.576Z,21.22
2018-11-07T12:19:10.789Z,21.20
2018-11-07T12:20:10.493Z,21.29
2018-11-07T12:21:10.493Z,21.21
2018-11-07T12:22:10.400Z,21.25
2018-11-07T12:23:10.350Z,21.27
2018-11-07T12:24:10.303Z,21.21
2018-11-07T12:25:10.550Z,21.21
2018-11-07T12:26:10.213Z,21.27
2018-11-07T12:27:10.175Z,21.32
2018-11-07T12:28:10.131Z,21.45
2018-11-07T12:29:10.063Z,21.37
2018-11-07T12:30:10.019Z,21.45
2018-11-07T12:31:10.302Z,21.45
2018-11-07T12:32:09.928Z,21.51
2018-11-07T12:33:09.898Z,21.54
2018-11-07T12:34:09.838Z,21.52
2018-11-07T12:35:09.800Z,21.58
2018-11-07T12:36:09.802Z,21.57
2018-11-07T12:37:10.011Z,21.50
2018-11-07T12:38:09.653Z,21.45
2018-11-07T12:39:09.632Z,21.62
2018-11-07T12:40:09.567Z,21.51
2018-11-07T12:41:09.513Z,21.60
2018-11-07T12:42:09.472Z,21.60
2018-11-07T12:43:09.726Z,21.70
2018-11-07T12:44:09.381Z,21.76
2018-11-07T12:45:09.335Z,21.83
2018-11-07T12:46:09.496Z,21.89
2018-11-07T12:47:09.244Z,21.89
2018-11-07T12:48:09.198Z,21.91
2018-11-07T12:49:09.454Z,21.91
2018-11-07T12:50:09.287Z,21.88
2018-11-07T12:51:09.060Z,21.88
2018-11-07T12:52:09.005Z,21.89
2018-11-07T12:53:08.973Z,21.85
2018-11-07T12:54:08.916Z,21.82
2018-11-07T12:55:09.120Z,21.89
2018-11-07T12:56:08.849Z,21.93
2018-11-07T12:57:08.915Z,21.89
2018-11-07T12:58:09.123Z,21.85
2018-11-07T12:59:08.687Z,21.85
2018-11-07T13:00:08.639Z,21.89